createdAt,value
2022-08-22T00:01:10.764Z,99645.81
2022-08-22T00:02:58.076Z,99649.16
2022-08-22T00:03:04.187Z,99697.06
2022-08-22T00:03:55.218Z,99640.34
2022-08-22T00:06:41.834Z,99644.94
2022-08-22T00:09:31.950Z,99643.09
2022-08-22T00:12:16.177Z,99645.88
2022-08-22T00:14:59.974Z,99648.91
2022-08-22T00:17:43.869Z,99641.78
2022-08-22T00:20:26.094Z,99643.66
2022-08-22T00:23:13.143Z,99640.91
2022-08-22T00:25:56.127Z,99651.06
2022-08-22T00:28:35.840Z,99642.72
2022-08-22T00:31:24.378Z,99637.47
2022-08-22T00:34:06.237Z,99639.50
2022-08-22T00:36:47.680Z,99634.50
2022-08-22T00:39:29.879Z,99638.28
2022-08-22T00:42:31.793Z,99638.50
2022-08-22T00:45:43.100Z,99637.28
2022-08-22T00:48:36.664Z,99641.84
2022-08-22T00:51:51.854Z,99638.75
2022-08-22T00:54:39.328Z,99642.78
2022-08-22T00:57:41.801Z,99640.00
2022-08-22T01:00:21.892Z,99637.59
2022-08-22T01:03:20.096Z,99642.56
2022-08-22T01:06:08.213Z,99632.31
2022-08-22T01:08:59.849Z,99643.97
2022-08-22T01:12:01.461Z,99628.03
2022-08-22T01:14:48.792Z,99626.91
2022-08-22T01:18:01.253Z,99627.16
2022-08-22T01:21:09.201Z,99622.28
2022-08-22T01:24:16.894Z,99630.16
2022-08-22T01:27:31.384Z,99626.09
2022-08-22T01:30:45.086Z,99626.91
2022-08-22T01:34:00.915Z,99625.50
2022-08-22T01:37:08.342Z,99626.78
2022-08-22T01:40:05.280Z,99618.94
2022-08-22T01:42:58.194Z,99625.41
2022-08-22T01:45:55.150Z,99620.47
2022-08-22T01:48:39.203Z,99623.00
2022-08-22T01:51:21.218Z,99621.94
2022-08-22T01:54:03.550Z,99625.50
2022-08-22T01:56:43.828Z,99635.31
2022-08-22T01:59:34.007Z,99626.91
2022-08-22T02:02:48.988Z,99635.50
2022-08-22T02:05:31.218Z,99632.88
2022-08-22T02:08:18.367Z,99626.03
2022-08-22T02:11:03.336Z,99625.56
2022-08-22T02:13:56.916Z,99624.59
2022-08-22T02:16:39.015Z,99621.00
2022-08-22T02:19:27.155Z,99617.88
2022-08-22T02:22:08.928Z,99622.22
2022-08-22T02:24:52.595Z,99615.44
2022-08-22T02:27:38.247Z,99614.41
2022-08-22T02:30:15.259Z,99608.84
2022-08-22T02:33:06.608Z,99614.41
2022-08-22T02:35:50.191Z,99596.56
2022-08-22T02:38:30.180Z,99602.88
2022-08-22T02:41:11.870Z,99608.72
2022-08-22T02:43:50.710Z,99604.22
2022-08-22T02:46:31.720Z,99599.81
2022-08-22T02:49:14.260Z,99600.78
2022-08-22T02:51:54.755Z,99613.25
2022-08-22T02:54:36.892Z,99607.84
2022-08-22T02:57:15.226Z,99608.84
2022-08-22T03:00:30.978Z,99601.75
2022-08-22T03:03:16.243Z,99599.56
2022-08-22T03:06:01.393Z,99599.56
2022-08-22T03:08:47.333Z,99608.31
2022-08-22T03:11:30.153Z,99611.47
2022-08-22T03:14:09.236Z,99612.03
2022-08-22T03:16:55.471Z,99609.28
2022-08-22T03:19:42.714Z,99611.69
2022-08-22T03:22:23.494Z,99608.72
2022-08-22T03:25:01.228Z,99609.50
2022-08-22T03:27:41.964Z,99608.59
2022-08-22T03:30:21.203Z,99605.37
2022-08-22T03:32:59.729Z,99610.50
2022-08-22T03:35:50.756Z,99611.59
2022-08-22T03:38:30.191Z,99606.97
2022-08-22T03:41:58.861Z,99609.06
2022-08-22T03:45:13.963Z,99608.16
2022-08-22T03:48:21.725Z,99611.78
2022-08-22T03:51:34.388Z,99617.25
2022-08-22T03:54:47.963Z,99616.22
2022-08-22T03:58:04.184Z,99610.78
2022-08-22T04:01:13.798Z,99619.44
2022-08-22T04:04:36.347Z,99619.66
2022-08-22T04:07:38.383Z,99621.84
2022-08-22T04:10:44.139Z,99619.72
2022-08-22T04:13:39.232Z,99622.06
2022-08-22T04:16:45.015Z,99624.84
2022-08-22T04:19:41.219Z,99619.53
2022-08-22T04:22:27.367Z,99625.16
2022-08-22T04:25:08.140Z,99620.03
2022-08-22T04:27:52.139Z,99622.41
2022-08-22T04:30:33.179Z,99618.97
2022-08-22T04:33:11.978Z,99618.66
2022-08-22T04:35:59.333Z,99624.25
2022-08-22T04:38:39.748Z,99623.19
2022-08-22T04:41:25.614Z,99624.09
2022-08-22T04:44:06.256Z,99628.16
2022-08-22T04:46:46.703Z,99633.88
2022-08-22T04:49:26.408Z,99627.81
2022-08-22T04:52:19.400Z,99633.38
2022-08-22T04:55:04.092Z,99642.69
2022-08-22T04:57:46.991Z,99648.78
2022-08-22T05:00:21.485Z,99643.34
2022-08-22T05:02:58.990Z,99649.75
2022-08-22T05:05:39.687Z,99646.38
2022-08-22T05:08:19.795Z,99643.75
2022-08-22T05:10:56.202Z,99635.84
2022-08-22T05:13:33.349Z,99641.41
2022-08-22T05:16:20.883Z,99648.25
2022-08-22T05:19:02.170Z,99659.53
2022-08-22T05:21:39.923Z,99657.78
2022-08-22T05:24:24.177Z,99650.13
2022-08-22T05:27:12.515Z,99661.12
2022-08-22T05:29:50.550Z,99645.31
2022-08-22T05:32:30.213Z,99648.00
2022-08-22T05:35:09.807Z,99657.72
2022-08-22T05:37:47.591Z,99652.97
2022-08-22T05:40:26.657Z,99668.19
2022-08-22T05:43:01.210Z,99662.53
2022-08-22T05:45:38.188Z,99668.31
2022-08-22T05:48:19.158Z,99668.56
2022-08-22T05:50:58.598Z,99670.44
2022-08-22T05:53:38.481Z,99677.56
2022-08-22T05:56:22.979Z,99676.00
2022-08-22T05:59:08.458Z,99680.44
2022-08-22T06:01:52.247Z,99671.56
2022-08-22T06:04:36.480Z,99691.44
2022-08-22T06:07:18.941Z,99684.88
2022-08-22T06:10:06.879Z,99680.59
2022-08-22T06:12:51.327Z,99681.34
2022-08-22T06:15:32.091Z,99682.31
2022-08-22T06:18:10.408Z,99686.09
2022-08-22T06:20:49.137Z,99687.75
2022-08-22T06:23:28.024Z,99684.97
2022-08-22T06:26:03.720Z,99682.44
2022-08-22T06:28:54.822Z,99680.84
2022-08-22T06:31:32.537Z,99674.44
2022-08-22T06:34:12.081Z,99675.53
2022-08-22T06:36:50.135Z,99682.91
2022-08-22T06:39:27.133Z,99680.34
2022-08-22T06:42:05.907Z,99690.91
2022-08-22T06:44:46.076Z,99690.72
2022-08-22T06:47:26.009Z,99696.13
2022-08-22T06:50:04.550Z,99696.28
2022-08-22T06:52:48.591Z,99686.56
2022-08-22T06:55:26.335Z,99692.38
2022-08-22T06:58:04.690Z,99692.22
2022-08-22T07:00:44.585Z,99695.94
2022-08-22T07:03:28.211Z,99699.59
2022-08-22T07:06:03.890Z,99700.00
2022-08-22T07:08:39.270Z,99703.19
2022-08-22T07:11:18.779Z,99703.41
2022-08-22T07:13:57.760Z,99704.59
2022-08-22T07:16:38.613Z,99700.41
2022-08-22T07:19:24.784Z,99705.78
2022-08-22T07:22:03.722Z,99710.06
2022-08-22T07:24:42.451Z,99696.22
2022-08-22T07:27:27.278Z,99713.09
2022-08-22T07:30:10.209Z,99710.69
2022-08-22T07:32:53.917Z,99703.19
2022-08-22T07:35:31.594Z,99704.59
2022-08-22T07:38:16.952Z,99715.81
2022-08-22T07:41:02.014Z,99710.16
2022-08-22T07:43:41.718Z,99718.44
2022-08-22T07:46:28.660Z,99716.84
2022-08-22T07:49:13.971Z,99714.69
2022-08-22T07:51:53.463Z,99719.41
2022-08-22T07:54:36.054Z,99713.28
2022-08-22T07:57:16.418Z,99720.38
2022-08-22T07:59:53.450Z,99722.91
2022-08-22T08:02:28.700Z,99722.28
2022-08-22T08:05:05.143Z,99724.84
2022-08-22T08:07:44.757Z,99727.81
2022-08-22T08:10:24.410Z,99724.97
2022-08-22T08:13:03.748Z,99719.81
2022-08-22T08:15:40.386Z,99729.53
2022-08-22T08:18:23.605Z,99720.16
2022-08-22T08:21:03.651Z,99729.38
2022-08-22T08:23:41.969Z,99732.16
2022-08-22T08:26:20.568Z,99725.94
2022-08-22T08:28:58.295Z,99729.94
2022-08-22T08:31:38.133Z,99731.22
2022-08-22T08:34:23.242Z,99742.69
2022-08-22T08:37:03.577Z,99738.72
2022-08-22T08:39:42.517Z,99739.69
2022-08-22T08:43:00.247Z,99743.69
2022-08-22T08:46:16.944Z,99743.69
2022-08-22T08:49:23.897Z,99741.19
2022-08-22T08:52:26.755Z,99740.13
2022-08-22T08:55:21.811Z,99747.63
2022-08-22T08:58:17.704Z,99746.88
2022-08-22T09:01:01.973Z,99743.13
2022-08-22T09:04:05.628Z,99734.53
2022-08-22T09:07:25.486Z,99737.66
2022-08-22T09:10:16.636Z,99736.78
2022-08-22T09:13:13.126Z,99738.50
2022-08-22T09:16:05.949Z,99741.41
2022-08-22T09:18:59.472Z,99736.47
2022-08-22T09:22:14.479Z,99736.69
2022-08-22T09:25:23.391Z,99737.53
2022-08-22T09:28:03.015Z,99731.12
2022-08-22T09:30:59.194Z,99744.16
2022-08-22T09:33:42.980Z,99742.06
2022-08-22T09:36:21.998Z,99745.47
2022-08-22T09:39:00.967Z,99745.22
2022-08-22T09:41:42.781Z,99740.16
2022-08-22T09:44:30.176Z,99738.06
2022-08-22T09:47:14.154Z,99739.25
2022-08-22T09:49:59.851Z,99739.63
2022-08-22T09:52:53.563Z,99736.75
2022-08-22T09:55:43.669Z,99742.81
2022-08-22T09:58:27.890Z,99737.31
2022-08-22T10:01:11.987Z,99735.50
2022-08-22T10:04:28.988Z,99743.47
2022-08-22T10:07:11.901Z,99740.28
2022-08-22T10:09:58.306Z,99740.97
2022-08-22T10:12:45.527Z,99743.91
2022-08-22T10:15:35.477Z,99747.38
2022-08-22T10:18:26.181Z,99745.06
2022-08-22T10:21:10.118Z,99748.13
2022-08-22T10:23:52.914Z,99748.13
2022-08-22T10:26:37.887Z,99754.28
2022-08-22T10:29:40.631Z,99749.44
2022-08-22T10:32:30.881Z,99752.41
2022-08-22T10:35:19.601Z,99748.28
2022-08-22T10:37:58.393Z,99750.88
2022-08-22T10:40:38.441Z,99749.56
2022-08-22T10:43:21.251Z,99747.94
2022-08-22T10:46:12.532Z,99743.44
2022-08-22T10:48:53.241Z,99745.06
2022-08-22T10:51:40.793Z,99745.09
2022-08-22T10:54:48.807Z,99755.16
2022-08-22T10:57:54.412Z,99751.63
2022-08-22T11:00:46.164Z,99747.88
2022-08-22T11:03:31.159Z,99752.03
2022-08-22T11:06:13.728Z,99761.19
2022-08-22T11:09:14.674Z,99763.41
2022-08-22T11:11:57.273Z,99756.25
2022-08-22T11:15:03.483Z,99747.84
2022-08-22T11:18:14.763Z,99755.19
2022-08-22T11:21:02.090Z,99765.25
2022-08-22T11:23:46.237Z,99757.41
2022-08-22T11:26:46.585Z,99761.31
2022-08-22T11:29:42.536Z,99764.87
2022-08-22T11:32:24.272Z,99765.34
2022-08-22T11:35:09.035Z,99761.38
2022-08-22T11:37:56.418Z,99754.81
2022-08-22T11:40:40.895Z,99759.59
2022-08-22T11:43:38.484Z,99763.50
2022-08-22T11:46:23.109Z,99756.41
2022-08-22T11:49:10.863Z,99764.50
2022-08-22T11:52:03.677Z,99760.69
2022-08-22T11:54:59.049Z,99755.25
2022-08-22T11:57:38.888Z,99753.16
2022-08-22T12:00:35.069Z,99747.31
2022-08-22T12:03:34.584Z,99759.00
2022-08-22T12:06:34.712Z,99749.47
2022-08-22T12:09:17.978Z,99759.59
2022-08-22T12:12:24.070Z,99761.59
2022-08-22T12:15:08.893Z,99755.31
2022-08-22T12:18:30.863Z,99761.38
2022-08-22T12:21:26.559Z,99755.16
2022-08-22T12:24:23.726Z,99755.19
2022-08-22T12:27:36.213Z,99750.53
2022-08-22T12:30:18.732Z,99757.69
2022-08-22T12:33:26.023Z,99748.00
2022-08-22T12:36:09.619Z,99749.44
2022-08-22T12:39:27.468Z,99741.94
2022-08-22T12:42:11.110Z,99747.38
2022-08-22T12:45:01.706Z,99751.81
2022-08-22T12:47:55.449Z,99752.31
2022-08-22T12:50:43.047Z,99749.22
2022-08-22T12:53:49.620Z,99739.34
2022-08-22T12:56:34.685Z,99745.34
2022-08-22T12:59:24.630Z,99752.03
2022-08-22T13:02:02.566Z,99747.25
2022-08-22T13:04:46.835Z,99755.16
2022-08-22T13:07:29.123Z,99754.31
2022-08-22T13:10:09.119Z,99755.81
2022-08-22T13:12:48.586Z,99756.94
2022-08-22T13:15:28.680Z,99754.47
2022-08-22T13:18:28.669Z,99766.16
2022-08-22T13:21:10.421Z,99765.53
2022-08-22T13:23:53.479Z,99761.66
2022-08-22T13:26:33.206Z,99768.66
2022-08-22T13:29:27.201Z,99765.59
2022-08-22T13:32:03.748Z,99771.03
2022-08-22T13:34:43.561Z,99760.41
2022-08-22T13:37:25.911Z,99767.47
2022-08-22T13:40:06.076Z,99765.47
2022-08-22T13:42:47.771Z,99771.69
2022-08-22T13:45:26.521Z,99763.38
2022-08-22T13:48:04.146Z,99769.41
2022-08-22T13:51:02.120Z,99766.50
2022-08-22T13:53:49.765Z,99770.34
2022-08-22T13:56:47.169Z,99764.59
2022-08-22T13:59:49.509Z,99775.91
2022-08-22T14:02:43.167Z,99767.94
2022-08-22T14:05:23.334Z,99768.22
2022-08-22T14:08:12.778Z,99773.97
2022-08-22T14:10:52.243Z,99773.31
2022-08-22T14:13:46.306Z,99768.91
2022-08-22T14:16:24.516Z,99769.88
2022-08-22T14:19:05.960Z,99765.56
2022-08-22T14:21:44.419Z,99770.63
2022-08-22T14:39:48.751Z,99769.00
2022-08-22T14:42:26.659Z,99782.63
2022-08-22T14:45:07.034Z,99777.47
2022-08-22T14:48:14.484Z,99781.03
2022-08-22T14:50:45.841Z,99778.34
2022-08-22T14:53:28.699Z,99777.81
2022-08-22T14:56:11.027Z,99776.19
2022-08-22T14:58:51.973Z,99782.72
2022-08-22T15:01:29.822Z,99780.06
2022-08-22T15:04:10.543Z,99777.50
2022-08-22T15:06:53.551Z,99780.06
2022-08-22T15:09:34.146Z,99781.66
2022-08-22T15:12:22.452Z,99781.63
2022-08-22T15:15:00.314Z,99773.59
2022-08-22T15:17:44.071Z,99776.78
2022-08-22T15:20:28.577Z,99782.97
2022-08-22T15:23:10.123Z,99783.22
2022-08-22T15:25:46.982Z,99783.44
2022-08-22T15:28:22.075Z,99775.59
2022-08-22T15:31:07.067Z,99785.53
2022-08-22T15:33:45.451Z,99779.72
2022-08-22T15:36:22.478Z,99788.34
2022-08-22T15:39:28.765Z,99787.81
2022-08-22T15:42:06.076Z,99785.16
2022-08-22T15:44:44.298Z,99787.06
2022-08-22T15:47:30.422Z,99790.38
2022-08-22T15:50:14.766Z,99792.34
2022-08-22T15:53:19.969Z,99793.78
2022-08-22T15:56:28.097Z,99792.59
2022-08-22T15:59:53.939Z,99796.91
2022-08-22T16:02:35.472Z,99808.34
2022-08-22T16:05:26.638Z,99813.69
2022-08-22T16:08:05.949Z,99812.69
2022-08-22T16:10:44.425Z,99818.22
2022-08-22T16:13:41.914Z,99824.91
2022-08-22T16:16:49.505Z,99829.56
2022-08-22T16:19:27.362Z,99832.28
2022-08-22T16:22:15.775Z,99831.00
2022-08-22T16:25:17.781Z,99819.47
2022-08-22T16:27:58.405Z,99826.78
2022-08-22T16:30:36.629Z,99817.94
2022-08-22T16:33:18.532Z,99815.97
2022-08-22T16:36:45.246Z,99813.06
2022-08-22T16:39:42.004Z,99819.00
2022-08-22T16:42:26.312Z,99819.94
2022-08-22T16:45:13.383Z,99824.78
2022-08-22T16:47:56.695Z,99816.53
2022-08-22T16:50:37.875Z,99808.19
2022-08-22T16:53:52.573Z,99819.97
2022-08-22T16:56:31.467Z,99814.69
2022-08-22T16:59:38.637Z,99824.09
2022-08-22T17:02:28.572Z,99826.81
2022-08-22T17:05:19.394Z,99829.56
2022-08-22T17:08:08.113Z,99829.44
2022-08-22T17:11:05.952Z,99824.69
2022-08-22T17:13:55.913Z,99821.25
2022-08-22T17:16:54.119Z,99827.03
2022-08-22T17:19:42.587Z,99831.09
2022-08-22T17:22:29.232Z,99835.41
2022-08-22T17:25:22.748Z,99846.44
2022-08-22T17:28:14.364Z,99854.84
2022-08-22T17:31:00.502Z,99845.75
2022-08-22T17:33:56.426Z,99854.19
2022-08-22T17:36:43.814Z,99852.00
2022-08-22T17:39:29.988Z,99859.78
2022-08-22T17:42:21.433Z,99860.34
2022-08-22T17:45:08.349Z,99864.06
2022-08-22T17:47:48.563Z,99865.00
2022-08-22T17:50:26.896Z,99856.19
2022-08-22T17:53:04.421Z,99847.84
2022-08-22T17:55:54.350Z,99846.66
2022-08-22T17:58:37.633Z,99850.81
2022-08-22T18:01:37.765Z,99856.37
2022-08-22T18:04:24.306Z,99864.16
2022-08-22T18:07:20.104Z,99860.06
2022-08-22T18:10:00.488Z,99863.59
2022-08-22T18:12:41.926Z,99862.19
2022-08-22T18:15:24.261Z,99878.06
2022-08-22T18:18:06.367Z,99877.84
2022-08-22T18:20:51.621Z,99885.38
2022-08-22T18:23:39.241Z,99891.19
2022-08-22T18:26:25.074Z,99886.78
2022-08-22T18:29:09.323Z,99889.81
2022-08-22T18:31:50.524Z,99884.44
2022-08-22T18:34:38.304Z,99889.06
2022-08-22T18:37:23.211Z,99887.34
2022-08-22T18:40:03.892Z,99893.22
2022-08-22T18:42:45.390Z,99896.28
2022-08-22T18:45:44.304Z,99894.84
2022-08-22T18:48:21.750Z,99889.16
2022-08-22T18:51:16.479Z,99898.97
2022-08-22T18:53:55.208Z,99886.59
2022-08-22T18:56:50.954Z,99887.94
2022-08-22T18:59:40.528Z,99894.66
2022-08-22T19:02:33.703Z,99902.28
2022-08-22T19:05:34.442Z,99908.00
2022-08-22T19:08:34.365Z,99908.59
2022-08-22T19:11:20.406Z,99906.81
2022-08-22T19:14:28.165Z,99905.47
2022-08-22T19:17:32.784Z,99907.44
2022-08-22T19:20:29.319Z,99900.16
2022-08-22T19:23:41.314Z,99903.31
2022-08-22T19:26:33.958Z,99909.94
2022-08-22T19:29:47.685Z,99919.66
2022-08-22T19:33:13.687Z,99920.38
2022-08-22T19:36:08.955Z,99927.56
2022-08-22T19:38:59.983Z,99925.87
2022-08-22T19:41:54.540Z,99916.84
2022-08-22T19:44:42.250Z,99928.28
2022-08-22T19:47:31.499Z,99927.59
2022-08-22T19:50:13.297Z,99932.19
2022-08-22T19:52:59.351Z,99931.84
2022-08-22T19:55:55.658Z,99938.47
2022-08-22T19:58:42.388Z,99930.50
2022-08-22T20:01:36.773Z,99934.13
2022-08-22T20:04:31.496Z,99936.16
2022-08-22T20:07:14.653Z,99935.31
2022-08-22T20:10:04.418Z,99939.75
2022-08-22T20:12:49.583Z,99937.47
2022-08-22T20:15:28.156Z,99936.75
2022-08-22T20:21:01.033Z,99937.75
2022-08-22T20:23:35.240Z,99929.19
2022-08-22T20:26:09.708Z,99925.75
2022-08-22T20:28:48.936Z,99928.34
2022-08-22T20:31:27.567Z,99915.88
2022-08-22T20:34:05.278Z,99919.25
2022-08-22T20:36:44.142Z,99911.47
2022-08-22T20:39:22.377Z,99910.31
2022-08-22T20:42:04.909Z,99910.75
2022-08-22T20:44:43.094Z,99905.00
2022-08-22T20:47:24.062Z,99917.47
2022-08-22T20:50:02.022Z,99918.75
2022-08-22T20:52:39.199Z,99918.44
2022-08-22T20:55:17.527Z,99911.31
2022-08-22T20:57:56.283Z,99913.94
2022-08-22T21:00:35.443Z,99914.66
2022-08-22T21:03:20.210Z,99913.94
2022-08-22T21:05:54.511Z,99912.72
2022-08-22T21:08:28.942Z,99900.88
2022-08-22T21:11:37.325Z,99892.22
2022-08-22T21:14:22.483Z,99897.50
2022-08-22T21:16:56.867Z,99895.78
2022-08-22T21:19:32.749Z,99900.00
2022-08-22T21:22:13.261Z,99881.38
2022-08-22T21:24:47.755Z,99889.19
2022-08-22T21:27:27.021Z,99890.78
2022-08-22T21:30:05.130Z,99886.75
2022-08-22T21:32:43.303Z,99885.22
2022-08-22T21:35:27.151Z,99887.69
2022-08-22T21:38:03.024Z,99893.81
2022-08-22T21:40:39.672Z,99891.25
2022-08-22T21:43:28.081Z,99898.34
2022-08-22T21:46:03.291Z,99895.63
2022-08-22T21:48:43.885Z,99909.41
2022-08-22T21:51:42.021Z,99900.09
2022-08-22T21:54:40.867Z,99898.62
2022-08-22T21:57:34.711Z,99892.78
2022-08-22T22:00:31.780Z,99896.59
2022-08-22T22:03:11.562Z,99889.75
2022-08-22T22:05:46.204Z,99895.44
2022-08-22T22:08:22.249Z,99901.81
2022-08-22T22:11:00.024Z,99899.59
2022-08-22T22:13:34.838Z,99909.59
2022-08-22T22:16:12.148Z,99914.09
2022-08-22T22:18:46.691Z,99916.66
2022-08-22T22:21:20.972Z,99922.53
2022-08-22T22:23:58.458Z,99929.31
2022-08-22T22:26:33.352Z,99928.44
2022-08-22T22:29:09.253Z,99939.28
2022-08-22T22:31:44.572Z,99942.38
2022-08-22T22:34:19.119Z,99948.84
2022-08-22T22:36:53.323Z,99938.59
2022-08-22T22:39:29.993Z,99940.44
2022-08-22T22:42:04.357Z,99937.66
2022-08-22T22:44:38.875Z,99942.28
2022-08-22T22:47:13.107Z,99945.59
2022-08-22T22:49:47.699Z,99946.38
2022-08-22T22:52:22.148Z,99945.81
2022-08-22T22:54:58.543Z,99947.31
2022-08-22T22:57:32.681Z,99945.69
2022-08-22T23:00:18.283Z,99950.00
2022-08-22T23:02:52.396Z,99943.38
2022-08-22T23:05:26.850Z,99942.22
2022-08-22T23:08:01.684Z,99941.81
2022-08-22T23:10:37.736Z,99940.28
2022-08-22T23:13:11.976Z,99941.06
2022-08-22T23:15:46.567Z,99948.03
2022-08-22T23:18:20.980Z,99942.91
2022-08-22T23:21:11.680Z,99938.63
2022-08-22T23:23:46.258Z,99944.47
2022-08-22T23:26:22.028Z,99936.62
2022-08-22T23:28:56.236Z,99947.78
2022-08-22T23:31:33.679Z,99937.47
2022-08-22T23:34:11.051Z,99942.91
2022-08-22T23:36:47.983Z,99941.97
2022-08-22T23:39:23.488Z,99936.72
2022-08-22T23:42:00.792Z,99930.50
2022-08-22T23:44:37.472Z,99934.91
2022-08-22T23:47:12.176Z,99931.56
2022-08-22T23:49:46.463Z,99931.56
2022-08-22T23:52:20.972Z,99935.13
2022-08-22T23:54:55.852Z,99924.00
2022-08-22T23:57:33.149Z,99926.81
